createdAt,value
2022-09-01T00:00:23.688Z,100135.50
2022-09-01T00:05:27.089Z,100135.44
2022-09-01T00:10:30.780Z,100132.09
2022-09-01T00:15:36.098Z,100128.28
2022-09-01T00:20:39.763Z,100144.63
2022-09-01T00:25:43.230Z,100146.06
2022-09-01T00:30:46.258Z,100138.22
2022-09-01T00:35:49.231Z,100140.91
2022-09-01T00:40:52.472Z,100152.88
2022-09-01T00:45:57.961Z,100148.94
2022-09-01T00:51:04.170Z,100152.41
2022-09-01T00:56:09.521Z,100153.00
2022-09-01T01:01:14.772Z,100150.03
2022-09-01T01:06:19.448Z,100165.00
2022-09-01T01:11:22.579Z,100162.31
2022-09-01T01:16:28.536Z,100169.69
2022-09-01T01:22:02.729Z,100171.13
2022-09-01T01:27:07.068Z,100182.00
2022-09-01T01:32:13.439Z,100194.28
2022-09-01T01:37:16.351Z,100187.00
2022-09-01T01:42:19.536Z,100184.28
2022-09-01T01:47:22.461Z,100183.41
2022-09-01T01:52:26.151Z,100181.31
2022-09-01T01:57:33.143Z,100174.31
2022-09-01T02:02:38.320Z,100173.50
2022-09-01T02:07:43.101Z,100164.44
2022-09-01T02:12:46.487Z,100165.91
2022-09-01T02:17:49.808Z,100168.19
2022-09-01T02:22:55.617Z,100168.66
2022-09-01T02:28:00.625Z,100178.91
2022-09-01T02:33:05.065Z,100177.63
2022-09-01T02:38:08.850Z,100175.34
2022-09-01T02:43:13.593Z,100170.59
2022-09-01T02:48:17.893Z,100175.31
2022-09-01T02:53:23.107Z,100148.56
2022-09-01T02:58:28.369Z,100140.91
2022-09-01T03:03:31.368Z,100137.19
2022-09-01T03:08:36.710Z,100134.47
2022-09-01T03:13:41.464Z,100124.00
2022-09-01T03:18:44.810Z,100124.38
2022-09-01T03:23:50.465Z,100123.75
2022-09-01T03:28:54.020Z,100127.47
2022-09-01T03:33:57.184Z,100123.47
2022-09-01T03:39:01.311Z,100137.06
2022-09-01T03:44:04.407Z,100140.25
2022-09-01T03:49:08.210Z,100157.25
2022-09-01T03:54:11.272Z,100162.75
2022-09-01T03:59:17.372Z,100154.28
2022-09-01T04:04:20.465Z,100155.66
2022-09-01T04:09:23.402Z,100153.13
2022-09-01T04:14:27.698Z,100160.44
2022-09-01T04:19:39.655Z,100154.22
2022-09-01T04:24:46.615Z,100155.84
2022-09-01T04:29:50.247Z,100148.88
2022-09-01T04:34:53.121Z,100146.84
2022-09-01T04:39:57.677Z,100151.38
2022-09-01T04:45:02.060Z,100147.22
2022-09-01T04:50:15.064Z,100146.75
2022-09-01T04:55:18.309Z,100147.16
2022-09-01T05:00:23.680Z,100138.06
2022-09-01T05:05:27.534Z,100131.06
2022-09-01T05:10:31.689Z,100122.84
2022-09-01T05:15:35.641Z,100133.16
2022-09-01T05:20:42.120Z,100142.63
2022-09-01T05:25:46.958Z,100138.13
2022-09-01T05:30:54.135Z,100137.16
2022-09-01T05:36:02.314Z,100142.06
2022-09-01T05:41:09.017Z,100141.63
2022-09-01T05:46:13.657Z,100145.31
2022-09-01T05:51:43.216Z,100159.88
2022-09-01T05:56:46.195Z,100154.91
2022-09-01T06:01:50.529Z,100152.44
2022-09-01T06:07:06.622Z,100166.41
2022-09-01T06:12:18.184Z,100149.63
2022-09-01T06:17:25.534Z,100152.63
2022-09-01T06:22:29.443Z,100148.16
2022-09-01T06:27:34.564Z,100151.09
2022-09-01T06:32:38.642Z,100148.22
2022-09-01T06:37:46.156Z,100160.59
2022-09-01T06:42:51.655Z,100166.50
2022-09-01T06:47:57.764Z,100163.00
2022-09-01T06:58:35.009Z,100162.25
2022-09-01T07:03:39.553Z,100165.53
2022-09-01T07:14:16.319Z,100177.00
2022-09-01T07:19:19.394Z,100170.22
2022-09-01T07:24:26.637Z,100179.72
2022-09-01T07:29:35.469Z,100178.50
2022-09-01T07:34:39.890Z,100176.09
2022-09-01T07:39:48.606Z,100172.78
2022-09-01T07:44:53.251Z,100174.47
2022-09-01T07:50:25.009Z,100171.53
2022-09-01T07:55:19.416Z,100174.91
2022-09-01T08:00:22.484Z,100179.56
2022-09-01T08:05:27.165Z,100185.03
2022-09-01T08:10:30.286Z,100179.34
2022-09-01T08:16:06.430Z,100183.56
2022-09-01T08:20:56.342Z,100178.88
2022-09-01T08:25:59.205Z,100181.19
2022-09-01T08:31:18.132Z,100170.50
2022-09-01T08:36:24.806Z,100177.94
2022-09-01T08:41:50.589Z,100183.97
2022-09-01T08:47:08.755Z,100181.94
2022-09-01T08:52:30.951Z,100179.69
2022-09-01T08:57:36.884Z,100179.28
2022-09-01T09:03:18.597Z,100180.28
2022-09-01T09:09:03.907Z,100178.88
2022-09-01T09:14:31.547Z,100180.50
2022-09-01T09:19:42.708Z,100176.59
2022-09-01T09:24:56.355Z,100178.22
2022-09-01T09:30:08.024Z,100174.91
2022-09-01T09:35:33.212Z,100154.69
2022-09-01T09:40:53.193Z,100165.22
2022-09-01T09:46:38.775Z,100154.03
2022-09-01T09:51:45.622Z,100155.59
2022-09-01T09:57:03.439Z,100148.53
2022-09-01T10:02:42.357Z,100146.41
2022-09-01T10:07:45.622Z,100143.66
2022-09-01T10:12:48.492Z,100138.25
2022-09-01T10:18:14.047Z,100140.78
2022-09-01T10:23:18.919Z,100127.41
2022-09-01T10:28:24.596Z,100130.72
2022-09-01T10:33:28.749Z,100124.56
2022-09-01T10:38:32.149Z,100121.56
2022-09-01T10:43:44.316Z,100133.44
2022-09-01T10:49:02.738Z,100123.88
2022-09-01T10:54:07.408Z,100116.22
2022-09-01T10:59:33.418Z,100113.72
2022-09-01T11:04:40.045Z,100106.31
2022-09-01T11:10:11.013Z,100096.16
2022-09-01T11:15:14.540Z,100091.91
2022-09-01T11:20:38.788Z,100088.09
2022-09-01T11:26:18.673Z,100084.13
2022-09-01T11:31:35.540Z,100088.81
2022-09-01T11:36:47.307Z,100077.34
2022-09-01T11:42:19.008Z,100080.09
2022-09-01T11:47:26.786Z,100086.66
2022-09-01T11:52:38.397Z,100072.25
2022-09-01T11:57:41.685Z,100072.25
2022-09-01T12:02:51.612Z,100062.75
2022-09-01T12:07:55.889Z,100063.44
2022-09-01T12:13:04.636Z,100064.06
2022-09-01T12:18:24.611Z,100068.47
2022-09-01T12:23:43.251Z,100059.34
2022-09-01T12:28:49.718Z,100052.56
2022-09-01T12:33:56.230Z,100052.44
2022-09-01T12:39:17.990Z,100054.97
2022-09-01T12:44:37.259Z,100057.63
2022-09-01T12:49:50.143Z,100056.09
2022-09-01T12:55:00.163Z,100055.94
2022-09-01T13:00:32.699Z,100053.41
2022-09-01T13:05:42.333Z,100048.97
2022-09-01T13:11:11.253Z,100043.47
2022-09-01T13:16:15.567Z,100043.88
2022-09-01T13:21:18.512Z,100044.22
2022-09-01T13:26:21.604Z,100042.59
2022-09-01T13:31:32.203Z,100045.47
2022-09-01T13:36:45.445Z,100048.06
2022-09-01T13:41:51.488Z,100057.41
2022-09-01T13:52:18.714Z,100052.25
2022-09-01T13:57:22.268Z,100052.09
2022-09-01T14:02:26.495Z,100035.84
2022-09-01T14:07:30.132Z,100044.06
2022-09-01T14:12:33.086Z,100045.81
2022-09-01T14:17:38.399Z,100041.22
2022-09-01T14:22:41.975Z,100042.91
2022-09-01T14:27:45.717Z,100037.31
2022-09-01T14:32:52.573Z,100046.16
2022-09-01T14:37:56.429Z,100041.75
2022-09-01T14:42:59.655Z,100039.78
2022-09-01T14:48:02.785Z,100038.13
2022-09-01T14:53:05.938Z,100048.63
2022-09-01T14:58:08.912Z,100051.25
2022-09-01T15:03:11.910Z,100054.34
2022-09-01T15:08:17.755Z,100049.03
2022-09-01T15:13:21.002Z,100057.06
2022-09-01T15:18:23.970Z,100058.50
2022-09-01T15:23:27.158Z,100057.81
2022-09-01T15:28:30.195Z,100057.22
2022-09-01T15:33:33.060Z,100054.03
2022-09-01T15:38:36.502Z,100050.56
2022-09-01T15:43:40.098Z,100059.06
2022-09-01T15:48:45.950Z,100054.63
2022-09-01T15:53:55.621Z,100068.00
2022-09-01T15:59:01.477Z,100059.81
2022-09-01T16:04:08.088Z,100061.22
2022-09-01T16:09:12.615Z,100063.50
2022-09-01T16:14:16.114Z,100071.75
2022-09-01T16:19:45.453Z,100065.06
2022-09-01T16:24:54.384Z,100063.81
2022-09-01T16:30:04.136Z,100062.38
2022-09-01T16:35:07.446Z,100064.16
2022-09-01T16:40:57.991Z,100067.81
2022-09-01T16:46:36.022Z,100071.44
2022-09-01T16:52:07.335Z,100075.44
2022-09-01T16:57:46.265Z,100072.84
2022-09-01T17:02:52.704Z,100079.16
2022-09-01T17:08:21.666Z,100092.16
2022-09-01T17:13:38.217Z,100092.44
2022-09-01T17:18:51.338Z,100098.47
2022-09-01T17:24:22.426Z,100086.06
2022-09-01T17:29:46.973Z,100094.41
2022-09-01T17:35:04.037Z,100102.88
2022-09-01T17:40:24.784Z,100099.34
2022-09-01T17:45:47.890Z,100107.25
2022-09-01T17:51:20.303Z,100110.09
2022-09-01T17:56:53.481Z,100123.25
2022-09-01T18:02:10.228Z,100131.50
2022-09-01T18:07:52.662Z,100137.38
2022-09-01T18:13:10.855Z,100137.25
2022-09-01T18:18:37.606Z,100152.84
2022-09-01T18:23:44.235Z,100149.59
2022-09-01T18:28:50.748Z,100145.94
2022-09-01T18:34:37.143Z,100154.22
2022-09-01T18:40:08.040Z,100162.50
2022-09-01T18:45:45.428Z,100161.69
2022-09-01T18:51:38.531Z,100171.19
2022-09-01T18:57:01.128Z,100165.88
2022-09-01T19:02:19.386Z,100169.97
2022-09-01T19:07:43.947Z,100170.81
2022-09-01T19:13:01.786Z,100183.81
2022-09-01T19:18:39.205Z,100180.31
2022-09-01T19:23:59.536Z,100180.91
2022-09-01T19:29:13.883Z,100182.78
2022-09-01T19:34:26.697Z,100186.28
2022-09-01T19:39:41.464Z,100203.81
2022-09-01T19:45:12.255Z,100204.47
2022-09-01T19:50:36.110Z,100215.81
2022-09-01T19:55:55.399Z,100213.97
2022-09-01T20:01:03.446Z,100226.53
2022-09-01T20:06:35.516Z,100233.78
2022-09-01T20:11:54.424Z,100237.66
2022-09-01T20:17:03.391Z,100244.25
2022-09-01T20:22:42.051Z,100246.94
2022-09-01T20:28:03.602Z,100252.13
2022-09-01T20:33:38.149Z,100247.38
2022-09-01T20:39:33.036Z,100251.47
2022-09-01T20:44:59.651Z,100256.84
2022-09-01T20:50:10.925Z,100259.13
2022-09-01T20:55:25.113Z,100259.53
2022-09-01T21:00:30.574Z,100263.47
2022-09-01T21:05:39.969Z,100266.53
2022-09-01T21:11:13.743Z,100270.25
2022-09-01T21:16:43.340Z,100268.59
2022-09-01T21:22:15.001Z,100278.88
2022-09-01T21:27:26.533Z,100279.69
2022-09-01T21:32:33.807Z,100283.56
2022-09-01T21:37:36.745Z,100290.75
2022-09-01T21:43:06.977Z,100285.22
2022-09-01T21:48:10.064Z,100283.16
2022-09-01T21:53:14.168Z,100281.09
2022-09-01T21:58:17.200Z,100285.03
2022-09-01T22:03:20.586Z,100278.03
2022-09-01T22:08:23.570Z,100277.38
2022-09-01T22:13:27.663Z,100274.91
2022-09-01T22:18:30.791Z,100271.19
2022-09-01T22:23:34.137Z,100276.75
2022-09-01T22:28:37.337Z,100273.00
2022-09-01T22:33:40.301Z,100258.31
2022-09-01T22:38:43.208Z,100261.78
2022-09-01T22:43:46.688Z,100255.53
2022-09-01T22:48:50.214Z,100253.41
2022-09-01T22:53:54.800Z,100255.41
2022-09-01T22:59:04.052Z,100251.03
2022-09-01T23:04:09.888Z,100252.03
2022-09-01T23:09:14.132Z,100253.03
2022-09-01T23:14:18.661Z,100254.44
2022-09-01T23:19:23.191Z,100248.25
2022-09-01T23:24:26.148Z,100251.13
2022-09-01T23:29:29.148Z,100243.88
2022-09-01T23:34:33.355Z,100235.19
2022-09-01T23:39:36.666Z,100238.28
2022-09-01T23:44:40.083Z,100237.00
2022-09-01T23:49:43.260Z,100230.22
2022-09-01T23:54:46.681Z,100222.81
2022-09-01T23:59:49.579Z,100234.34
